Time;durP1;ratioP1;P1;durP2;ratioP2;P2;SDS_P1;SDS_P2;PMS_P1;PMS_P2;Temp;Humidity;BMP_temperature;BMP_pressure;BME280_temperature;BME280_humidity;BME280_pressure;Samples;Min_cycle;Max_cycle;Signal;HPM_P1;HPM_P2
2023/10/23 00:01:38;;;;;;;3.77;2.27;;;8.70;1.00;;;;;;6310490;22;20183;-39
2023/10/23 00:04:05;;;;;;;3.47;2.40;;;8.70;1.00;;;;;;6309820;22;20432;-39
2023/10/23 00:06:30;;;;;;;3.00;2.50;;;8.90;1.00;;;;;;6271571;22;20522;-38
2023/10/23 00:08:56;;;;;;;4.07;2.90;;;9.30;99.90;;;;;;6279771;22;20662;-39
2023/10/23 00:11:31;;;;;;;5.40;2.53;;;9.60;99.90;;;;;;6279798;22;20144;-40
2023/10/23 00:13:57;;;;;;;5.83;2.70;;;9.90;1.00;;;;;;6251104;22;20390;-39
2023/10/23 00:16:23;;;;;;;3.43;2.53;;;10.10;99.90;;;;;;6278794;22;20655;-40
2023/10/23 00:18:49;;;;;;;5.90;2.37;;;10.30;93.40;;;;;;6278769;22;20364;-38
2023/10/23 00:21:15;;;;;;;5.00;2.50;;;10.50;1.00;;;;;;6278395;22;20149;-40
2023/10/23 00:23:41;;;;;;;2.70;2.27;;;10.70;1.00;;;;;;6278916;22;20167;-42
2023/10/23 00:26:07;;;;;;;6.93;2.97;;;10.70;99.90;;;;;;6278028;22;20533;-39
2023/10/23 00:28:33;;;;;;;5.23;3.13;;;10.80;1.00;;;;;;6250945;22;20498;-39
2023/10/23 00:30:59;;;;;;;4.53;2.50;;;10.60;1.00;;;;;;6251283;22;20402;-38
2023/10/23 00:33:25;;;;;;;4.30;2.80;;;10.30;1.00;;;;;;6251700;22;20387;-41
2023/10/23 00:35:51;;;;;;;4.77;2.70;;;10.00;99.90;;;;;;6279603;22;20482;-40
2023/10/23 00:38:16;;;;;;;4.17;2.63;;;9.80;99.90;;;;;;6278079;22;20394;-39
2023/10/23 00:40:42;;;;;;;4.00;2.40;;;9.50;1.00;;;;;;6278428;22;20516;-40
2023/10/23 00:43:24;;;;;;;6.17;3.10;;;9.30;99.90;;;;;;6277772;22;20144;-39
2023/10/23 00:45:57;;;;;;;6.80;2.87;;;9.10;99.90;;;;;;6278605;22;20214;-38
2023/10/23 00:48:24;;;;;;;3.83;3.20;;;8.90;1.00;;;;;;6279249;22;20426;-40
2023/10/23 00:50:51;;;;;;;6.13;2.80;;;8.80;1.00;;;;;;6278712;22;20409;-39
2023/10/23 00:53:18;;;;;;;4.03;2.73;;;8.70;1.00;;;;;;6277815;22;20387;-40
2023/10/23 00:55:46;;;;;;;3.23;2.93;;;8.60;1.00;;;;;;6278449;22;20727;-39
2023/10/23 00:58:13;;;;;;;4.80;2.57;;;8.50;7.10;;;;;;6278459;22;20358;-39
2023/10/23 01:00:38;;;;;;;2.93;2.23;;;8.40;77.70;;;;;;6277885;22;20367;-37
2023/10/23 01:03:04;;;;;;;4.73;3.70;;;8.30;99.90;;;;;;6278638;22;20444;-39
2023/10/23 01:05:30;;;;;;;4.47;2.63;;;8.20;99.90;;;;;;6277196;22;20556;-38
2023/10/23 01:07:56;;;;;;;3.67;2.73;;;8.20;99.90;;;;;;6305517;22;20187;-40
2023/10/23 01:10:21;;;;;;;4.70;3.03;;;8.10;99.90;;;;;;6308880;22;20140;-41
2023/10/23 01:12:47;;;;;;;4.00;3.33;;;8.10;99.90;;;;;;6282172;22;20374;-40
2023/10/23 01:15:13;;;;;;;3.40;3.10;;;8.00;99.90;;;;;;6308494;22;20178;-38
2023/10/23 01:17:39;;;;;;;3.90;3.03;;;8.00;99.90;;;;;;6309312;22;20183;-44
2023/10/23 01:20:08;;;;;;;4.23;3.10;;;8.00;99.90;;;;;;6309368;22;20735;-38
2023/10/23 01:22:34;;;;;;;3.93;3.03;;;7.90;99.90;;;;;;6308870;22;20152;-37
2023/10/23 01:25:00;;;;;;;5.27;2.80;;;7.90;99.90;;;;;;6309148;22;20719;-42
2023/10/23 01:27:26;;;;;;;3.80;2.60;;;7.80;99.90;;;;;;6282425;22;20156;-41
2023/10/23 01:29:51;;;;;;;5.83;3.13;;;7.80;99.90;;;;;;6308875;22;20769;-39
2023/10/23 01:32:17;;;;;;;4.47;2.70;;;7.80;99.90;;;;;;6309042;22;20140;-39
2023/10/23 01:34:43;;;;;;;5.77;3.13;;;7.70;99.90;;;;;;6308308;22;20152;-39
2023/10/23 01:37:08;;;;;;;8.47;3.00;;;7.70;99.90;;;;;;6308478;22;20194;-38
2023/10/23 01:39:34;;;;;;;3.17;2.27;;;7.60;99.90;;;;;;6282501;22;20155;-38
2023/10/23 01:41:59;;;;;;;6.40;3.20;;;7.60;99.90;;;;;;6309370;22;20163;-37
2023/10/23 01:44:26;;;;;;;4.80;2.80;;;7.60;99.90;;;;;;6309306;22;20154;-38
2023/10/23 01:46:52;;;;;;;5.77;3.03;;;7.50;99.90;;;;;;6309311;22;20180;-40
2023/10/23 01:49:17;;;;;;;2.97;2.23;;;7.50;99.90;;;;;;6309380;22;20350;-38
2023/10/23 01:51:44;;;;;;;3.63;2.53;;;7.40;99.90;;;;;;6309230;22;20181;-38
2023/10/23 01:54:09;;;;;;;4.33;2.87;;;7.40;1.00;;;;;;6308432;22;20160;-38
2023/10/23 01:56:35;;;;;;;3.90;2.50;;;7.40;99.90;;;;;;6307999;22;20405;-38
2023/10/23 01:59:01;;;;;;;3.53;2.90;;;7.40;1.00;;;;;;6308844;22;20143;-40
2023/10/23 02:01:27;;;;;;;4.33;2.97;;;7.40;1.00;;;;;;6308202;22;20370;-37
2023/10/23 02:03:52;;;;;;;3.87;2.33;;;7.40;1.00;;;;;;6306872;22;20141;-40
2023/10/23 02:06:18;;;;;;;4.03;2.83;;;7.40;1.00;;;;;;6307891;22;20482;-38
2023/10/23 02:08:44;;;;;;;4.47;2.60;;;7.30;1.00;;;;;;6309147;22;20159;-39
2023/10/23 02:11:09;;;;;;;3.50;2.60;;;7.30;1.00;;;;;;6307142;22;20148;-38
2023/10/23 02:13:35;;;;;;;5.63;3.37;;;7.20;1.00;;;;;;6308349;22;20481;-38
2023/10/23 02:16:01;;;;;;;3.63;2.97;;;7.20;1.00;;;;;;6308905;22;20144;-41
2023/10/23 02:18:27;;;;;;;5.47;3.53;;;7.20;1.00;;;;;;6310941;22;20385;-37
2023/10/23 02:20:52;;;;;;;5.20;3.00;;;7.10;1.00;;;;;;6311151;22;20156;-40
2023/10/23 02:23:18;;;;;;;3.30;2.77;;;7.10;1.00;;;;;;6309658;22;20156;-39
2023/10/23 02:25:43;;;;;;;3.60;2.77;;;7.10;1.00;;;;;;6310637;22;20417;-39
2023/10/23 02:28:09;;;;;;;3.37;2.93;;;7.00;1.00;;;;;;6309616;22;20193;-40
2023/10/23 02:30:38;;;;;;;4.27;2.70;;;7.00;1.00;;;;;;6310455;22;20159;-39
2023/10/23 02:33:03;;;;;;;3.67;2.60;;;7.00;1.00;;;;;;6311199;22;20202;-38
2023/10/23 02:35:29;;;;;;;3.40;2.67;;;7.00;1.00;;;;;;6310084;22;20950;-38
2023/10/23 02:37:54;;;;;;;3.20;2.90;;;7.00;1.00;;;;;;6311018;22;20516;-37
2023/10/23 02:40:21;;;;;;;3.90;2.77;;;7.00;1.00;;;;;;6309867;22;20170;-38
2023/10/23 02:42:47;;;;;;;5.30;3.07;;;6.90;1.00;;;;;;6310680;22;20151;-40
2023/10/23 02:45:13;;;;;;;5.10;2.97;;;6.90;1.00;;;;;;6310780;22;20921;-38
2023/10/23 02:47:39;;;;;;;7.30;3.10;;;6.90;1.00;;;;;;6310635;22;20188;-39
2023/10/23 02:50:06;;;;;;;3.27;2.60;;;6.80;1.00;;;;;;6309490;22;20378;-38
2023/10/23 02:52:31;;;;;;;3.10;2.80;;;6.80;1.00;;;;;;6310714;22;21050;-38
2023/10/23 02:54:57;;;;;;;5.53;3.30;;;6.80;1.00;;;;;;6309432;22;20351;-39
2023/10/23 02:57:23;;;;;;;9.23;2.93;;;6.80;1.00;;;;;;6309734;22;20139;-38
2023/10/23 02:59:48;;;;;;;3.40;2.73;;;6.80;1.00;;;;;;6310510;22;20434;-40
2023/10/23 03:02:16;;;;;;;4.10;2.40;;;6.80;1.00;;;;;;6309314;22;20136;-39
2023/10/23 03:04:42;;;;;;;3.53;2.63;;;6.80;1.00;;;;;;6306936;22;20132;-38
2023/10/23 03:07:08;;;;;;;4.23;2.87;;;6.80;1.00;;;;;;6306550;22;20453;-41
2023/10/23 03:09:34;;;;;;;3.50;2.77;;;6.70;1.00;;;;;;6306562;22;20426;-42
2023/10/23 03:11:59;;;;;;;4.00;2.77;;;6.70;1.00;;;;;;6308190;22;20704;-40
2023/10/23 03:14:25;;;;;;;6.17;3.20;;;6.70;1.00;;;;;;6308735;22;20156;-40
2023/10/23 03:16:51;;;;;;;4.27;3.13;;;6.70;1.00;;;;;;6308662;22;20369;-39
2023/10/23 03:19:17;;;;;;;4.43;3.13;;;6.60;1.00;;;;;;6308977;22;20148;-40
2023/10/23 03:21:42;;;;;;;5.13;2.90;;;6.60;1.00;;;;;;6310469;22;20163;-41
2023/10/23 03:24:08;;;;;;;4.70;3.80;;;6.60;1.00;;;;;;6282116;22;20201;-40
2023/10/23 03:26:34;;;;;;;4.23;3.83;;;6.60;1.00;;;;;;6309278;22;20209;-38
2023/10/23 03:28:59;;;;;;;6.67;3.80;;;6.60;1.00;;;;;;6308314;22;20358;-38
2023/10/23 03:31:25;;;;;;;6.00;3.97;;;6.50;1.00;;;;;;6307175;22;20147;-39
2023/10/23 03:33:51;;;;;;;4.27;3.43;;;6.50;1.00;;;;;;6308783;22;20175;-41
2023/10/23 03:36:17;;;;;;;5.90;4.07;;;6.50;1.00;;;;;;6306208;22;20546;-41
2023/10/23 03:38:43;;;;;;;4.97;3.90;;;6.40;1.00;;;;;;6307114;22;20382;-42
2023/10/23 03:41:09;;;;;;;5.10;3.70;;;6.40;1.00;;;;;;6308289;22;20188;-41
2023/10/23 03:43:34;;;;;;;4.07;3.50;;;6.40;1.00;;;;;;6308214;22;20273;-39
2023/10/23 03:46:03;;;;;;;5.60;3.60;;;6.40;1.00;;;;;;6308651;22;20205;-39
2023/10/23 03:48:29;;;;;;;3.40;2.97;;;6.40;1.00;;;;;;6281991;22;20514;-40
2023/10/23 03:50:59;;;;;;;3.90;3.13;;;6.40;1.00;;;;;;6308477;22;20382;-40
2023/10/23 03:53:25;;;;;;;4.40;3.83;;;6.40;1.00;;;;;;6306899;22;20355;-39
2023/10/23 03:55:50;;;;;;;4.67;3.73;;;6.30;1.00;;;;;;6280033;22;20394;-40
2023/10/23 03:58:16;;;;;;;4.40;3.37;;;6.40;1.00;;;;;;6308432;22;20498;-39
2023/10/23 04:00:41;;;;;;;5.43;3.30;;;6.40;1.00;;;;;;6308579;22;20166;-40
2023/10/23 04:03:07;;;;;;;6.83;3.93;;;6.30;1.00;;;;;;6309558;22;20156;-39
2023/10/23 04:05:42;;;;;;;5.10;4.07;;;6.30;1.00;;;;;;6309016;22;20190;-38
2023/10/23 04:08:08;;;;;;;7.60;4.27;;;6.30;1.00;;;;;;6309128;22;20135;-39
2023/10/23 04:10:33;;;;;;;4.87;3.73;;;6.20;1.00;;;;;;6307873;22;20377;-40
2023/10/23 04:12:59;;;;;;;4.23;3.80;;;6.30;1.00;;;;;;6305992;22;20148;-39
2023/10/23 04:15:25;;;;;;;8.00;4.03;;;6.20;1.00;;;;;;6307779;22;20618;-42
2023/10/23 04:17:50;;;;;;;4.30;3.50;;;6.20;1.00;;;;;;6280966;22;20254;-38
2023/10/23 04:20:16;;;;;;;4.27;3.87;;;6.20;1.00;;;;;;6307938;22;20140;-47
2023/10/23 04:22:43;;;;;;;4.03;2.93;;;6.10;1.00;;;;;;6308173;22;20151;-40
2023/10/23 04:25:08;;;;;;;4.80;4.00;;;6.10;1.00;;;;;;6309964;22;20804;-40
2023/10/23 04:27:34;;;;;;;6.43;4.40;;;6.10;1.00;;;;;;6308913;22;20378;-40
2023/10/23 04:30:00;;;;;;;4.90;3.70;;;6.10;1.00;;;;;;6304420;22;20454;-40
2023/10/23 04:32:27;;;;;;;5.47;3.70;;;6.10;1.00;;;;;;6305709;22;20591;-39
2023/10/23 04:34:53;;;;;;;4.20;3.77;;;6.10;1.00;;;;;;6307151;22;20460;-38
2023/10/23 04:37:18;;;;;;;5.57;3.80;;;6.10;1.00;;;;;;6304597;22;20443;-40
2023/10/23 04:39:44;;;;;;;5.03;3.90;;;6.00;1.00;;;;;;6306267;22;20266;-40
2023/10/23 04:42:09;;;;;;;4.87;4.47;;;6.00;1.00;;;;;;6306098;22;20144;-40
2023/10/23 04:44:35;;;;;;;4.77;3.60;;;6.00;1.00;;;;;;6307736;22;20227;-39
2023/10/23 04:47:01;;;;;;;4.30;3.20;;;6.00;1.00;;;;;;6307972;22;20220;-38
2023/10/23 04:49:27;;;;;;;4.43;4.03;;;6.00;1.00;;;;;;6305561;22;20170;-38
2023/10/23 04:51:53;;;;;;;6.53;3.90;;;5.90;1.00;;;;;;6305052;22;20589;-40
2023/10/23 04:54:19;;;;;;;5.10;3.93;;;5.90;1.00;;;;;;6303402;22;20750;-39
2023/10/23 04:56:45;;;;;;;4.67;4.17;;;5.90;1.00;;;;;;6303661;22;20163;-41
2023/10/23 04:59:11;;;;;;;5.30;4.73;;;5.90;1.00;;;;;;6305632;22;20170;-38
2023/10/23 05:01:37;;;;;;;7.60;3.80;;;5.90;1.00;;;;;;6305190;22;20363;-39
2023/10/23 05:04:03;;;;;;;4.40;4.00;;;5.90;1.00;;;;;;6304066;22;20147;-41
2023/10/23 05:06:28;;;;;;;5.80;3.87;;;5.90;4.60;;;;;;6302925;22;20203;-38
2023/10/23 05:08:54;;;;;;;6.50;4.60;;;5.90;1.00;;;;;;6303680;22;20155;-38
2023/10/23 05:11:20;;;;;;;5.30;3.97;;;5.90;1.00;;;;;;6301355;22;20133;-40
2023/10/23 05:13:46;;;;;;;5.23;4.70;;;5.90;1.00;;;;;;6298839;22;20769;-38
2023/10/23 05:16:12;;;;;;;5.97;4.50;;;5.90;2.30;;;;;;6297370;22;20245;-40
2023/10/23 05:18:38;;;;;;;9.13;4.70;;;5.80;2.20;;;;;;6304010;22;20156;-39
2023/10/23 05:21:11;;;;;;;17.10;7.03;;;5.80;9.70;;;;;;6275949;22;20383;-38
2023/10/23 05:23:40;;;;;;;19.93;9.03;;;5.80;15.60;;;;;;6303265;22;20390;-38
2023/10/23 05:26:07;;;;;;;8.77;6.03;;;5.80;20.20;;;;;;6304195;22;20701;-39
2023/10/23 05:28:33;;;;;;;11.63;6.40;;;5.80;26.40;;;;;;6303651;22;20809;-38
2023/10/23 05:30:58;;;;;;;13.97;7.93;;;5.80;27.30;;;;;;6274838;22;20382;-39
2023/10/23 05:33:25;;;;;;;13.30;7.23;;;5.70;24.40;;;;;;6302043;22;20390;-40
2023/10/23 05:36:00;;;;;;;11.30;6.90;;;5.80;8.60;;;;;;6306354;22;20424;-39
2023/10/23 05:38:26;;;;;;;11.90;7.17;;;5.70;1.00;;;;;;6305524;22;20707;-38
2023/10/23 05:40:57;;;;;;;14.60;8.77;;;5.70;5.10;;;;;;6304824;22;20359;-39
2023/10/23 05:43:26;;;;;;;16.17;8.70;;;5.70;11.70;;;;;;6303878;22;20549;-39
2023/10/23 05:45:55;;;;;;;16.87;9.27;;;5.70;10.40;;;;;;6304558;22;20458;-38
2023/10/23 05:48:21;;;;;;;9.23;5.57;;;5.70;3.70;;;;;;6274707;22;20598;-39
2023/10/23 05:51:01;;;;;;;10.17;5.90;;;5.60;1.00;;;;;;6276280;22;20382;-38
2023/10/23 05:53:27;;;;;;;12.57;6.20;;;5.60;6.30;;;;;;6307933;22;20420;-38
2023/10/23 05:55:53;;;;;;;11.20;6.37;;;5.60;14.90;;;;;;6306438;22;20363;-38
2023/10/23 05:58:19;;;;;;;17.07;8.67;;;5.60;16.70;;;;;;6305918;22;20420;-40
2023/10/23 06:00:45;;;;;;;17.13;11.87;;;5.60;17.40;;;;;;6307791;22;20538;-39
2023/10/23 06:03:10;;;;;;;24.07;13.47;;;5.60;26.90;;;;;;6307372;22;20785;-41
2023/10/23 06:05:41;;;;;;;32.90;15.17;;;5.70;47.10;;;;;;6309558;22;20584;-39
2023/10/23 06:08:06;;;;;;;28.27;15.90;;;5.70;51.30;;;;;;6308364;22;20136;-39
2023/10/23 06:10:32;;;;;;;34.10;18.47;;;5.70;57.60;;;;;;6309019;22;20413;-39
2023/10/23 06:12:58;;;;;;;16.17;6.37;;;5.70;67.70;;;;;;6309895;22;20406;-39
2023/10/23 06:15:24;;;;;;;26.50;13.50;;;8.80;1.00;;;;;;6309320;22;20385;-39
2023/10/23 06:17:50;;;;;;;33.77;18.83;;;9.70;1.00;;;;;;6308099;22;20155;-41
2023/10/23 06:20:16;;;;;;;30.33;17.20;;;10.50;1.00;;;;;;6283543;22;20163;-41
2023/10/23 06:22:41;;;;;;;31.33;17.60;;;11.40;1.00;;;;;;6284011;22;20435;-39
2023/10/23 06:25:07;;;;;;;35.87;19.13;;;10.80;99.90;;;;;;6307081;22;20398;-40
2023/10/23 06:27:33;;;;;;;37.30;21.93;;;10.20;99.90;;;;;;6309562;22;20152;-41
2023/10/23 06:29:59;;;;;;;38.40;20.90;;;9.90;99.90;;;;;;6310002;22;20428;-40
2023/10/23 06:32:24;;;;;;;44.07;24.87;;;9.50;99.90;;;;;;6309926;22;20537;-39
2023/10/23 06:34:51;;;;;;;47.30;23.17;;;9.20;1.00;;;;;;6307929;22;20180;-40
2023/10/23 06:37:17;;;;;;;41.17;21.90;;;9.00;1.00;;;;;;6307709;22;20144;-42
2023/10/23 06:39:42;;;;;;;34.70;20.13;;;8.70;99.90;;;;;;6309187;22;20393;-40
2023/10/23 06:42:08;;;;;;;26.23;15.00;;;8.50;1.00;;;;;;6308914;22;20235;-39
2023/10/23 06:44:34;;;;;;;26.90;15.37;;;8.30;99.90;;;;;;6310734;22;20247;-39
2023/10/23 06:46:59;;;;;;;30.00;16.47;;;8.20;1.00;;;;;;6308456;22;20623;-40
2023/10/23 06:49:25;;;;;;;23.00;13.93;;;8.10;1.00;;;;;;6309062;22;20543;-39
2023/10/23 06:51:50;;;;;;;25.60;15.13;;;8.00;1.00;;;;;;6309521;22;20148;-39
2023/10/23 06:54:16;;;;;;;22.63;13.60;;;8.00;1.00;;;;;;6309173;22;20151;-39
2023/10/23 06:56:42;;;;;;;20.67;12.73;;;8.00;47.80;;;;;;6306652;22;20527;-39
2023/10/23 06:59:08;;;;;;;23.43;12.90;;;7.90;99.90;;;;;;6305969;22;20282;-38
2023/10/23 07:01:33;;;;;;;25.03;14.63;;;7.90;99.90;;;;;;6306557;22;20144;-39
2023/10/23 07:03:59;;;;;;;25.80;16.20;;;8.00;99.90;;;;;;6307654;22;20468;-39
2023/10/23 07:06:24;;;;;;;29.10;15.33;;;8.00;99.90;;;;;;6303886;22;20196;-37
2023/10/23 07:08:50;;;;;;;25.20;14.00;;;7.90;99.90;;;;;;6307325;22;20159;-41
2023/10/23 07:11:18;;;;;;;19.03;11.63;;;7.90;99.90;;;;;;6307618;22;20160;-39
2023/10/23 07:13:43;;;;;;;17.17;10.17;;;7.80;1.00;;;;;;6309261;22;20549;-41
2023/10/23 07:16:09;;;;;;;14.57;9.80;;;7.80;1.00;;;;;;6307351;22;20394;-38
2023/10/23 07:18:34;;;;;;;11.27;7.93;;;7.90;1.00;;;;;;6307612;22;20171;-39
2023/10/23 07:21:00;;;;;;;12.57;8.80;;;7.90;1.00;;;;;;6305819;22;20148;-46
2023/10/23 07:23:28;;;;;;;19.63;9.57;;;8.00;1.00;;;;;;6281255;22;20191;-38
2023/10/23 07:26:12;;;;;;;18.73;12.20;;;8.10;1.00;;;;;;6307044;22;20502;-40
2023/10/23 07:28:39;;;;;;;12.70;9.23;;;8.20;1.00;;;;;;6305719;22;20421;-38
2023/10/23 07:31:05;;;;;;;14.53;8.60;;;8.30;1.00;;;;;;6306163;22;20572;-38
2023/10/23 07:33:31;;;;;;;11.03;7.93;;;8.40;1.00;;;;;;6304168;22;20753;-40
2023/10/23 07:36:04;;;;;;;10.57;7.73;;;8.50;99.90;;;;;;6304093;22;20384;-39
2023/10/23 07:38:30;;;;;;;8.13;7.30;;;8.60;99.90;;;;;;6305764;22;20461;-39
2023/10/23 07:40:57;;;;;;;8.57;7.57;;;8.70;99.90;;;;;;6304292;22;20350;-39
2023/10/23 07:43:24;;;;;;;10.67;7.40;;;8.80;99.90;;;;;;6308419;22;20397;-39
2023/10/23 07:45:49;;;;;;;14.00;9.17;;;9.00;99.90;;;;;;6307743;22;20436;-38
2023/10/23 07:48:15;;;;;;;14.33;11.83;;;9.20;99.90;;;;;;6307178;22;20413;-38
2023/10/23 07:50:40;;;;;;;13.33;10.67;;;9.30;99.90;;;;;;6306416;22;20222;-38
2023/10/23 07:53:06;;;;;;;16.43;10.00;;;9.40;99.90;;;;;;6304765;22;20520;-41
2023/10/23 07:55:32;;;;;;;11.27;8.60;;;9.50;75.90;;;;;;6306425;22;20147;-39
2023/10/23 07:57:57;;;;;;;18.63;10.33;;;9.50;99.90;;;;;;6307295;22;20210;-38
2023/10/23 08:00:23;;;;;;;12.27;8.13;;;9.50;99.90;;;;;;6305791;22;20148;-40
2023/10/23 08:02:48;;;;;;;12.37;8.63;;;9.60;99.90;;;;;;6307230;22;20557;-39
2023/10/23 08:05:14;;;;;;;12.97;8.37;;;9.80;21.20;;;;;;6305542;22;20132;-38
2023/10/23 08:07:40;;;;;;;9.03;7.67;;;9.90;28.10;;;;;;6305300;22;20192;-51
2023/10/23 08:10:06;;;;;;;13.87;9.33;;;10.20;1.00;;;;;;6307478;22;20206;-38
2023/10/23 08:12:31;;;;;;;10.90;8.50;;;10.40;1.00;;;;;;6307914;22;20152;-38
2023/10/23 08:14:57;;;;;;;9.50;8.50;;;10.60;1.00;;;;;;6307758;22;20461;-39
2023/10/23 08:17:22;;;;;;;14.90;9.33;;;10.70;99.90;;;;;;6308611;22;20454;-39
2023/10/23 08:19:48;;;;;;;11.07;8.93;;;10.90;1.00;;;;;;6282205;22;20601;-37
2023/10/23 08:22:14;;;;;;;9.40;7.90;;;10.90;1.00;;;;;;6308369;22;20175;-40
2023/10/23 08:24:39;;;;;;;8.17;7.37;;;10.80;13.20;;;;;;6307441;22;20152;-37
2023/10/23 08:27:05;;;;;;;9.43;6.80;;;10.70;1.00;;;;;;6308407;22;20187;-40
2023/10/23 08:29:30;;;;;;;11.00;7.00;;;10.80;1.00;;;;;;6306976;22;20175;-38
2023/10/23 08:31:57;;;;;;;6.83;6.07;;;10.70;98.10;;;;;;6307336;22;20133;-40
2023/10/23 08:34:22;;;;;;;8.70;6.13;;;10.90;1.00;;;;;;6306464;22;20148;-38
2023/10/23 08:36:48;;;;;;;8.87;5.20;;;11.10;1.00;;;;;;6307676;22;20535;-37
2023/10/23 08:39:14;;;;;;;7.23;5.53;;;11.50;99.90;;;;;;6308761;22;20208;-38
2023/10/23 08:41:40;;;;;;;5.43;4.43;;;11.80;32.10;;;;;;6305993;22;20820;-37
2023/10/23 08:44:06;;;;;;;5.73;4.93;;;12.10;1.00;;;;;;6306208;22;20354;-40
2023/10/23 08:46:40;;;;;;;6.70;4.60;;;12.40;94.70;;;;;;5111675;27;20536;-42
2023/10/23 08:49:05;;;;;;;6.53;5.93;;;12.80;1.00;;;;;;5113519;28;20696;-39
2023/10/23 08:51:31;;;;;;;8.33;5.63;;;13.00;1.00;;;;;;5113294;28;20406;-42
2023/10/23 08:54:07;;;;;;;7.70;4.43;;;13.10;1.00;;;;;;5113426;28;20175;-40
2023/10/23 08:56:39;;;;;;;8.73;4.87;;;13.10;1.00;;;;;;5113318;28;20572;-42
2023/10/23 08:59:05;;;;;;;5.90;4.50;;;13.10;1.00;;;;;;5112669;28;20501;-40
2023/10/23 09:01:34;;;;;;;6.00;5.40;;;13.10;1.00;;;;;;5110953;28;20417;-42
2023/10/23 09:03:59;;;;;;;4.90;4.00;;;13.10;1.00;;;;;;5112323;28;20447;-42
2023/10/23 09:06:25;;;;;;;7.20;4.67;;;13.00;99.90;;;;;;5111871;28;20550;-40
2023/10/23 09:08:51;;;;;;;7.70;4.33;;;13.00;99.90;;;;;;5112392;28;20172;-39
2023/10/23 09:11:16;;;;;;;7.03;4.90;;;13.00;1.00;;;;;;5111563;28;20255;-40
2023/10/23 09:13:42;;;;;;;5.60;4.30;;;13.00;37.70;;;;;;5112449;28;20232;-38
2023/10/23 09:16:10;;;;;;;5.60;4.73;;;13.10;1.00;;;;;;5112464;28;20184;-41
2023/10/23 09:18:49;;;;;;;6.67;4.40;;;13.10;20.90;;;;;;5112189;28;20188;-40
2023/10/23 09:21:15;;;;;;;6.70;5.10;;;13.20;1.00;;;;;;5109718;28;20481;-40
2023/10/23 09:24:03;;;;;;;7.57;5.83;;;13.30;99.90;;;;;;5110293;28;20921;-41
2023/10/23 09:26:28;;;;;;;8.93;4.73;;;13.40;99.90;;;;;;5113087;28;20492;-38
2023/10/23 09:28:54;;;;;;;9.03;5.53;;;13.60;51.60;;;;;;5111711;28;20431;-40
2023/10/23 09:31:21;;;;;;;7.93;5.00;;;13.70;99.90;;;;;;5110278;28;20278;-39
2023/10/23 09:33:48;;;;;;;4.87;4.33;;;14.00;1.00;;;;;;5110485;28;20441;-39
2023/10/23 09:36:14;;;;;;;6.43;4.97;;;14.20;43.30;;;;;;5110314;28;20430;-40
2023/10/23 09:38:42;;;;;;;6.60;5.93;;;14.20;1.00;;;;;;5110905;28;20458;-41
2023/10/23 09:41:11;;;;;;;9.63;5.90;;;14.20;36.50;;;;;;5112682;28;20427;-41
2023/10/23 09:43:45;;;;;;;6.67;5.80;;;14.20;1.00;;;;;;5110547;28;20425;-40
2023/10/23 09:46:14;;;;;;;6.67;5.57;;;14.10;1.80;;;;;;5111829;28;20500;-41
2023/10/23 09:48:44;;;;;;;20.77;14.70;;;14.00;34.80;;;;;;5110476;28;20851;-39
2023/10/23 09:51:14;;;;;;;18.77;13.23;;;14.00;99.90;;;;;;5112337;28;20429;-42
2023/10/23 09:53:48;;;;;;;14.13;8.60;;;14.10;97.00;;;;;;5111888;28;20711;-40
2023/10/23 09:56:17;;;;;;;12.93;10.00;;;14.20;95.70;;;;;;5106155;28;20419;-39
2023/10/23 09:58:44;;;;;;;11.67;8.53;;;14.30;40.50;;;;;;5094954;28;20410;-38
2023/10/23 10:01:11;;;;;;;33.83;26.20;;;14.50;1.00;;;;;;5096381;28;20886;-40
2023/10/23 10:03:39;;;;;;;15.47;11.03;;;14.70;1.00;;;;;;5096288;28;20457;-37
2023/10/23 10:06:11;;;;;;;7.17;5.57;;;14.80;99.90;;;;;;5096965;28;20474;-38
2023/10/23 10:08:40;;;;;;;5.23;4.47;;;15.00;99.90;;;;;;5096415;28;20426;-38
2023/10/23 10:11:07;;;;;;;3.93;3.20;;;15.10;93.30;;;;;;5096409;28;20798;-40
2023/10/23 10:13:34;;;;;;;5.50;3.23;;;15.30;1.00;;;;;;5096510;28;20513;-38
2023/10/23 10:16:00;;;;;;;2.90;2.40;;;15.30;1.00;;;;;;5095434;28;20780;-39
2023/10/23 10:18:26;;;;;;;4.13;2.60;;;15.30;1.00;;;;;;5096132;28;20470;-37
2023/10/23 10:20:57;;;;;;;3.77;2.80;;;15.40;1.00;;;;;;5097006;28;20578;-36
2023/10/23 10:23:24;;;;;;;6.60;3.60;;;15.40;1.00;;;;;;5097210;28;20682;-37
2023/10/23 10:25:50;;;;;;;8.87;6.43;;;15.40;1.00;;;;;;5096280;28;20593;-42
2023/10/23 10:28:16;;;;;;;8.20;5.63;;;15.40;1.00;;;;;;5094377;28;20509;-38
2023/10/23 10:30:46;;;;;;;10.97;6.87;;;15.20;1.00;;;;;;5096051;28;20603;-43
2023/10/23 10:33:29;;;;;;;9.40;6.30;;;14.90;1.00;;;;;;5095929;28;20191;-39
2023/10/23 10:36:07;;;;;;;10.60;6.40;;;14.90;1.00;;;;;;5093934;28;21006;-37
2023/10/23 10:38:34;;;;;;;7.43;6.30;;;14.80;1.00;;;;;;5091528;28;20466;-38
2023/10/23 10:41:00;;;;;;;7.27;5.70;;;14.90;1.00;;;;;;5096476;28;20421;-38
2023/10/23 10:43:32;;;;;;;10.57;5.60;;;14.80;1.00;;;;;;5095390;28;20418;-38
2023/10/23 10:46:13;;;;;;;12.50;7.10;;;14.80;1.00;;;;;;5095977;28;20231;-38
2023/10/23 10:48:42;;;;;;;12.43;6.10;;;14.70;1.00;;;;;;5094422;28;20434;-40
2023/10/23 10:51:08;;;;;;;7.50;5.40;;;14.80;1.00;;;;;;5095623;28;20454;-40
2023/10/23 10:53:38;;;;;;;7.07;6.00;;;14.90;1.00;;;;;;5093472;28;20472;-39
2023/10/23 10:56:08;;;;;;;16.80;7.13;;;14.80;1.00;;;;;;5095702;28;20175;-40
2023/10/23 10:58:34;;;;;;;8.47;6.00;;;14.70;1.00;;;;;;5093914;28;20422;-38
2023/10/23 11:01:02;;;;;;;10.10;5.80;;;14.80;1.00;;;;;;5095068;28;20458;-39
2023/10/23 11:03:30;;;;;;;7.50;6.10;;;14.90;1.00;;;;;;5093923;28;20438;-40
2023/10/23 11:05:56;;;;;;;9.03;5.80;;;15.10;1.00;;;;;;5096890;28;20465;-39
2023/10/23 11:08:21;;;;;;;8.80;6.43;;;15.30;1.00;;;;;;5092776;28;20550;-37
2023/10/23 11:10:47;;;;;;;9.03;6.23;;;15.40;1.00;;;;;;5095091;28;20196;-37
2023/10/23 11:13:15;;;;;;;8.87;6.50;;;15.50;1.00;;;;;;5094753;28;20423;-36
2023/10/23 11:15:41;;;;;;;13.07;6.47;;;15.50;1.00;;;;;;5096359;28;20203;-39
2023/10/23 11:18:08;;;;;;;6.87;5.17;;;15.50;1.00;;;;;;5077257;28;20402;-41
2023/10/23 11:20:35;;;;;;;4.40;3.00;;;15.50;1.00;;;;;;5093198;28;20411;-40
2023/10/23 11:23:01;;;;;;;3.30;3.00;;;15.50;99.90;;;;;;5090230;28;20434;-37
2023/10/23 11:25:27;;;;;;;2.60;2.03;;;15.40;99.90;;;;;;5091416;28;20960;-41
2023/10/23 11:27:54;;;;;;;5.07;2.40;;;15.50;99.90;;;;;;5092336;28;20222;-39
2023/10/23 11:30:27;;;;;;;4.87;2.20;;;15.50;99.90;;;;;;5091072;28;20398;-38
2023/10/23 11:32:53;;;;;;;4.90;2.20;;;15.50;99.90;;;;;;5090725;28;20827;-40
2023/10/23 11:35:19;;;;;;;2.70;2.30;;;15.50;99.90;;;;;;5091162;28;20438;-36
2023/10/23 11:37:44;;;;;;;2.50;2.17;;;15.50;99.90;;;;;;5090142;28;20431;-38
2023/10/23 11:40:11;;;;;;;5.20;2.37;;;15.40;99.90;;;;;;5088852;28;20713;-37
2023/10/23 11:42:50;;;;;;;4.70;1.80;;;15.40;99.90;;;;;;5092206;28;20451;-39
2023/10/23 11:45:19;;;;;;;4.73;2.00;;;15.30;99.90;;;;;;5092919;28;20466;-37
2023/10/23 11:47:46;;;;;;;3.87;1.80;;;15.20;99.90;;;;;;5091972;28;20411;-41
2023/10/23 11:50:15;;;;;;;2.23;1.70;;;15.10;99.90;;;;;;5093243;28;20871;-39
2023/10/23 11:52:46;;;;;;;4.03;2.00;;;14.80;99.90;;;;;;5094605;28;20664;-38
2023/10/23 11:55:14;;;;;;;4.77;2.20;;;14.70;99.90;;;;;;5094773;28;20426;-39
2023/10/23 11:57:52;;;;;;;2.30;1.73;;;14.80;99.90;;;;;;5094326;28;20449;-40
2023/10/23 12:00:20;;;;;;;4.10;2.00;;;14.80;99.90;;;;;;5093810;28;20424;-38
2023/10/23 12:02:47;;;;;;;12.63;2.23;;;14.80;99.90;;;;;;5096108;28;20449;-38
2023/10/23 12:05:21;;;;;;;2.13;1.63;;;14.80;1.00;;;;;;5094520;28;20531;-39
2023/10/23 12:07:54;;;;;;;3.37;1.90;;;14.80;1.00;;;;;;5095044;28;20710;-39
2023/10/23 12:10:21;;;;;;;4.03;2.60;;;14.80;41.40;;;;;;5093569;28;20441;-39
2023/10/23 12:12:48;;;;;;;2.33;1.60;;;14.90;1.00;;;;;;5092350;28;20419;-38
2023/10/23 12:15:15;;;;;;;7.03;2.00;;;14.90;1.00;;;;;;5091478;28;20406;-38
2023/10/23 12:17:41;;;;;;;3.93;1.57;;;14.80;1.00;;;;;;5092307;28;20454;-39
2023/10/23 12:20:10;;;;;;;3.93;2.20;;;14.70;1.00;;;;;;5095030;28;20635;-40
2023/10/23 12:22:46;;;;;;;2.60;2.07;;;14.70;99.90;;;;;;5076032;28;20514;-41
2023/10/23 12:25:13;;;;;;;6.40;2.20;;;14.60;1.00;;;;;;5094009;28;20508;-39
2023/10/23 12:27:40;;;;;;;4.10;2.40;;;14.50;99.90;;;;;;5095918;28;20458;-39
2023/10/23 12:30:07;;;;;;;2.23;1.73;;;14.60;99.90;;;;;;5095857;28;20406;-40
2023/10/23 12:32:33;;;;;;;3.90;3.33;;;14.70;99.90;;;;;;5094219;28;20419;-40
2023/10/23 12:34:59;;;;;;;4.63;3.43;;;14.80;99.90;;;;;;5093905;28;20430;-39
2023/10/23 12:37:32;;;;;;;3.83;3.07;;;14.80;99.90;;;;;;5093349;28;20430;-41
2023/10/23 12:40:00;;;;;;;7.10;3.43;;;14.80;1.00;;;;;;5091468;28;20862;-41
2023/10/23 12:42:26;;;;;;;6.80;3.70;;;14.90;1.00;;;;;;5092441;28;20698;-39
2023/10/23 12:44:54;;;;;;;5.03;2.93;;;15.00;12.30;;;;;;5094675;28;20498;-40
2023/10/23 12:47:19;;;;;;;4.60;3.20;;;15.00;15.70;;;;;;5093071;28;20514;-40
2023/10/23 12:49:45;;;;;;;3.63;2.83;;;15.10;52.40;;;;;;5090735;28;20525;-42
2023/10/23 12:52:11;;;;;;;3.10;2.40;;;15.00;59.00;;;;;;5090757;28;20184;-40
2023/10/23 12:54:37;;;;;;;3.90;2.13;;;15.00;1.00;;;;;;5093239;28;20582;-39